createdAt,value
2023-03-11T00:01:40.000Z,4.1
2023-03-11T00:03:52.000Z,3.5
2023-03-11T00:04:58.000Z,3.8
2023-03-11T00:06:04.000Z,3.2
2023-03-11T00:07:10.000Z,3.5
2023-03-11T00:09:22.000Z,2.9
2023-03-11T00:10:28.000Z,3.8
2023-03-11T00:11:34.000Z,3.8
2023-03-11T00:12:41.000Z,4.1
2023-03-11T00:14:53.000Z,3.5
2023-03-11T00:17:04.000Z,3.8
2023-03-11T00:20:22.000Z,3.5
2023-03-11T00:21:28.000Z,3.8
2023-03-11T00:22:34.000Z,3.5
2023-03-11T00:23:40.000Z,3.5
2023-03-11T00:25:52.000Z,3.5
2023-03-11T00:28:05.000Z,3.5
2023-03-11T00:30:17.000Z,3.8
2023-03-11T00:31:23.000Z,4.1
2023-03-11T00:32:29.000Z,3.8
2023-03-11T00:34:41.000Z,4.1
2023-03-11T00:35:47.000Z,3.2
2023-03-11T00:36:53.000Z,3.5
2023-03-11T00:37:59.000Z,3.8
2023-03-11T00:39:05.000Z,3.5
2023-03-11T00:41:18.000Z,3.8
2023-03-11T00:43:30.000Z,3.5
2023-03-11T00:44:36.000Z,3.8
2023-03-11T00:45:42.000Z,3.5
2023-03-11T00:47:54.000Z,3.8
2023-03-11T00:49:00.000Z,3.8
2023-03-11T00:50:06.000Z,2.5
2023-03-11T00:51:12.000Z,3.5
2023-03-11T00:57:49.000Z,3.5
2023-03-11T00:58:55.000Z,3.8
2023-03-11T01:01:06.000Z,3.8
2023-03-11T01:02:12.000Z,3.5
2023-03-11T01:04:24.000Z,4.1
2023-03-11T01:06:37.000Z,4.1
2023-03-11T01:08:49.000Z,3.5
2023-03-11T01:09:55.000Z,3.5
2023-03-11T01:12:07.000Z,3.5
2023-03-11T01:14:19.000Z,3.5
2023-03-11T01:15:26.000Z,2.5
2023-03-11T01:16:31.000Z,3.5
2023-03-11T01:18:43.000Z,3.2
2023-03-11T01:20:55.000Z,3.5
2023-03-11T01:23:07.000Z,3.5
2023-03-11T01:24:14.000Z,3.8
2023-03-11T01:25:20.000Z,3.8
2023-03-11T01:28:38.000Z,3.2
2023-03-11T01:30:50.000Z,3.8
2023-03-11T01:31:56.000Z,4.1
2023-03-11T01:33:03.000Z,3.8
2023-03-11T01:35:14.000Z,3.5
2023-03-11T01:36:20.000Z,3.8
2023-03-11T01:38:32.000Z,3.8
2023-03-11T01:39:38.000Z,3.8
2023-03-11T01:40:44.000Z,3.5
2023-03-11T01:41:51.000Z,3.5
2023-03-11T01:44:03.000Z,3.2
2023-03-11T01:45:09.000Z,2.9
2023-03-11T01:46:15.000Z,3.2
2023-03-11T01:48:27.000Z,3.5
2023-03-11T01:51:45.000Z,3.5
2023-03-11T01:52:51.000Z,3.5
2023-03-11T01:56:09.000Z,3.8
2023-03-11T01:57:15.000Z,4.8
2023-03-11T01:58:21.000Z,3.8
2023-03-11T02:00:33.000Z,3.2
2023-03-11T02:01:40.000Z,3.5
2023-03-11T02:03:52.000Z,3.2
2023-03-11T02:04:58.000Z,3.5
2023-03-11T02:06:03.000Z,2.5
2023-03-11T02:07:09.000Z,2.9
2023-03-11T02:08:15.000Z,3.8
2023-03-11T02:10:28.000Z,4.1
2023-03-11T02:11:34.000Z,3.8
2023-03-11T02:14:52.000Z,3.5
2023-03-11T02:15:58.000Z,3.2
2023-03-11T02:17:04.000Z,3.2
2023-03-11T02:18:10.000Z,3.2
2023-03-11T02:19:16.000Z,3.5
2023-03-11T02:20:23.000Z,3.8
2023-03-11T02:21:29.000Z,3.5
2023-03-11T02:22:34.000Z,3.5
2023-03-11T02:23:40.000Z,2.9
2023-03-11T02:24:46.000Z,3.8
2023-03-11T02:25:52.000Z,4.1
2023-03-11T02:28:04.904Z,3.2
2023-03-11T02:29:11.000Z,2.9
2023-03-11T02:30:17.000Z,3.8
2023-03-11T02:31:23.000Z,3.8
2023-03-11T02:32:29.000Z,3.5
2023-03-11T02:33:35.000Z,4.5
2023-03-11T02:34:41.000Z,3.5
2023-03-11T02:35:47.000Z,3.2
2023-03-11T02:36:53.000Z,3.8
2023-03-11T02:37:59.000Z,3.2
2023-03-11T02:39:05.000Z,3.8
2023-03-11T02:40:11.000Z,4.5
2023-03-11T02:41:16.000Z,2.9
2023-03-11T02:42:22.000Z,2.9
2023-03-11T02:43:28.000Z,3.5
2023-03-11T02:45:40.000Z,2.9
2023-03-11T02:46:46.000Z,3.2
2023-03-11T02:47:53.000Z,3.5
2023-03-11T02:50:05.000Z,3.5
2023-03-11T02:51:11.000Z,3.2
2023-03-11T02:52:17.000Z,2.9
2023-03-11T02:53:23.000Z,3.5
2023-03-11T02:54:29.000Z,3.2
2023-03-11T02:57:47.000Z,2.9
2023-03-11T02:58:52.000Z,3.2
2023-03-11T02:59:58.000Z,3.5
2023-03-11T03:02:09.000Z,3.2
2023-03-11T03:03:15.000Z,3.8
2023-03-11T03:04:21.000Z,3.5
2023-03-11T03:05:28.000Z,3.2
2023-03-11T03:06:34.000Z,3.2
2023-03-11T03:07:40.000Z,3.2
2023-03-11T03:09:52.000Z,3.8
2023-03-11T03:10:58.000Z,4.1
2023-03-11T03:13:10.000Z,4.5
2023-03-11T03:14:17.000Z,3.5
2023-03-11T03:15:22.000Z,3.2
2023-03-11T03:16:28.000Z,3.2
2023-03-11T03:19:46.000Z,3.2
2023-03-11T03:20:52.000Z,3.8
2023-03-11T03:21:58.000Z,2.9
2023-03-11T03:23:05.000Z,3.8
2023-03-11T03:24:11.000Z,2.2
2023-03-11T03:25:17.000Z,3.5
2023-03-11T03:27:29.000Z,3.5
2023-03-11T03:28:34.000Z,3.2
2023-03-11T03:29:40.000Z,3.8
2023-03-11T03:30:45.000Z,3.5
2023-03-11T03:31:52.000Z,3.2
2023-03-11T03:35:10.000Z,3.2
2023-03-11T03:37:22.000Z,3.2
2023-03-11T03:39:34.000Z,3.2
2023-03-11T03:40:40.000Z,3.2
2023-03-11T03:41:47.000Z,2.9
2023-03-11T03:42:53.000Z,3.2
2023-03-11T03:43:59.000Z,4.1
2023-03-11T03:45:04.000Z,3.2
2023-03-11T03:46:10.000Z,2.9
2023-03-11T03:47:16.000Z,2.9
2023-03-11T03:48:22.000Z,3.5
2023-03-11T03:49:28.000Z,3.2
2023-03-11T03:51:41.000Z,3.2
2023-03-11T03:52:47.000Z,3.2
2023-03-11T03:53:53.000Z,3.2
2023-03-11T03:54:59.000Z,2.9
2023-03-11T03:56:05.000Z,3.5
2023-03-11T03:57:11.000Z,3.2
2023-03-11T03:58:17.000Z,3.2
2023-03-11T03:59:23.000Z,3.8
2023-03-11T04:00:29.000Z,3.8
2023-03-11T04:01:35.000Z,3.2
2023-03-11T04:02:40.000Z,3.5
2023-03-11T04:03:46.000Z,3.5
2023-03-11T04:04:51.000Z,3.2
2023-03-11T04:05:57.000Z,2.9
2023-03-11T04:08:10.000Z,3.2
2023-03-11T04:09:16.000Z,3.2
2023-03-11T04:10:22.000Z,2.5
2023-03-11T04:11:28.000Z,3.2
2023-03-11T04:12:34.000Z,3.2
2023-03-11T04:13:40.000Z,3.5
2023-03-11T04:14:46.000Z,4.1
2023-03-11T04:15:52.000Z,3.2
2023-03-11T04:16:58.000Z,2.2
2023-03-11T04:18:05.000Z,3.2
2023-03-11T04:20:16.000Z,3.8
2023-03-11T04:22:27.000Z,2.5
2023-03-11T04:23:32.000Z,3.8
2023-03-11T04:24:37.000Z,4.1
2023-03-11T04:25:44.000Z,2.9
2023-03-11T04:26:50.000Z,3.5
2023-03-11T04:27:56.000Z,3.8
2023-03-11T04:29:02.000Z,3.5
2023-03-11T04:30:08.000Z,3.5
2023-03-11T04:31:14.000Z,3.2
2023-03-11T04:32:20.000Z,5.1
2023-03-11T04:33:26.000Z,2.9
2023-03-11T04:34:32.000Z,3.2
2023-03-11T04:35:38.000Z,4.1
2023-03-11T04:36:43.000Z,2.9
2023-03-11T04:37:49.000Z,2.9
2023-03-11T04:38:55.000Z,2.9
2023-03-11T04:41:07.000Z,3.2
2023-03-11T04:42:13.000Z,2.9
2023-03-11T04:43:20.000Z,3.2
2023-03-11T04:44:26.000Z,2.2
2023-03-11T04:45:32.000Z,2.9
2023-03-11T04:46:38.000Z,3.5
2023-03-11T04:47:44.000Z,3.2
2023-03-11T04:48:50.000Z,1.9
2023-03-11T04:49:56.000Z,2.9
2023-03-11T04:52:07.000Z,3.2
2023-03-11T04:53:13.000Z,3.5
2023-03-11T04:54:18.000Z,3.2
2023-03-11T04:55:24.000Z,3.8
2023-03-11T04:56:30.000Z,2.5
2023-03-11T04:57:36.000Z,3.2
2023-03-11T04:58:42.000Z,3.8
2023-03-11T04:59:48.000Z,3.5
2023-03-11T05:00:54.000Z,2.9
2023-03-11T05:02:01.000Z,3.2
2023-03-11T05:04:13.000Z,3.2
2023-03-11T05:05:19.000Z,2.9
2023-03-11T05:06:25.000Z,2.9
2023-03-11T05:07:31.000Z,2.5
2023-03-11T05:08:36.000Z,3.5
2023-03-11T05:09:43.000Z,3.2
2023-03-11T05:10:49.000Z,3.2
2023-03-11T05:11:55.000Z,4.1
2023-03-11T05:13:01.000Z,3.2
2023-03-11T05:14:07.000Z,3.2
2023-03-11T05:15:13.000Z,3.2
2023-03-11T05:16:19.000Z,2.9
2023-03-11T05:17:24.000Z,2.5
2023-03-11T05:18:30.000Z,3.5
2023-03-11T05:19:36.000Z,2.9
2023-03-11T05:20:42.000Z,3.5
2023-03-11T05:21:48.000Z,3.8
2023-03-11T05:22:54.000Z,3.2
2023-03-11T05:25:06.000Z,2.9
2023-03-11T05:26:12.000Z,3.5
2023-03-11T05:27:19.000Z,3.2
2023-03-11T05:28:25.000Z,2.5
2023-03-11T05:29:31.000Z,2.9
2023-03-11T05:30:37.000Z,2.5
2023-03-11T05:31:43.000Z,3.2
2023-03-11T05:32:48.000Z,2.5
2023-03-11T05:33:54.000Z,3.8
2023-03-11T05:35:00.000Z,3.2
2023-03-11T05:36:07.000Z,2.9
2023-03-11T05:37:13.000Z,3.5
2023-03-11T05:38:19.000Z,3.2
2023-03-11T05:39:25.000Z,3.5
2023-03-11T05:40:31.000Z,3.5
2023-03-11T05:41:36.000Z,2.9
2023-03-11T05:42:41.000Z,2.5
2023-03-11T05:43:47.000Z,3.5
2023-03-11T05:44:53.000Z,3.2
2023-03-11T05:45:59.000Z,3.2
2023-03-11T05:47:05.000Z,3.5
2023-03-11T05:48:12.000Z,2.2
2023-03-11T05:49:18.000Z,3.8
2023-03-11T05:50:24.000Z,2.9
2023-03-11T05:51:30.000Z,2.9
2023-03-11T05:52:36.000Z,2.9
2023-03-11T05:53:42.000Z,3.2
2023-03-11T05:54:48.000Z,3.5
2023-03-11T05:57:00.000Z,3.2
2023-03-11T06:00:17.000Z,2.9
2023-03-11T06:01:23.000Z,2.9
2023-03-11T06:02:28.000Z,1.9
2023-03-11T06:03:34.000Z,3.2
2023-03-11T06:04:40.000Z,3.2
2023-03-11T06:05:46.000Z,2.5
2023-03-11T06:07:58.000Z,3.2
2023-03-11T06:09:04.000Z,2.9
2023-03-11T06:10:10.000Z,3.8
2023-03-11T06:11:16.000Z,2.2
2023-03-11T06:12:22.000Z,3.5
2023-03-11T06:13:28.000Z,2.5
2023-03-11T06:14:34.000Z,3.2
2023-03-11T06:15:40.000Z,2.5
2023-03-11T06:16:46.000Z,3.5
2023-03-11T06:20:04.000Z,3.2
2023-03-11T06:21:09.000Z,3.5
2023-03-11T06:22:15.000Z,3.2
2023-03-11T06:23:20.000Z,3.2
2023-03-11T06:24:26.000Z,2.9
2023-03-11T06:25:32.000Z,2.9
2023-03-11T06:26:38.000Z,2.9
2023-03-11T06:27:44.000Z,3.5
2023-03-11T06:28:50.000Z,3.5
2023-03-11T06:29:56.000Z,3.2
2023-03-11T06:31:03.000Z,2.9
2023-03-11T06:32:09.000Z,3.2
2023-03-11T06:33:15.000Z,3.2
2023-03-11T06:34:20.000Z,3.8
2023-03-11T06:35:25.000Z,3.5
2023-03-11T06:36:31.000Z,3.5
2023-03-11T06:37:37.000Z,2.5
2023-03-11T06:38:43.000Z,3.2
2023-03-11T06:39:49.000Z,2.9
2023-03-11T06:40:55.000Z,3.8
2023-03-11T06:42:01.000Z,3.2
2023-03-11T06:43:07.000Z,2.9
2023-03-11T06:44:13.000Z,2.5
2023-03-11T06:45:20.000Z,3.5
2023-03-11T06:46:25.000Z,4.1
2023-03-11T06:47:30.000Z,2.5
2023-03-11T06:49:42.000Z,2.9
2023-03-11T06:50:48.000Z,3.2
2023-03-11T06:51:54.000Z,2.5
2023-03-11T06:53:00.000Z,2.5
2023-03-11T06:54:06.000Z,3.5
2023-03-11T06:55:12.000Z,2.9
2023-03-11T06:56:18.000Z,2.5
2023-03-11T06:57:24.000Z,2.9
2023-03-11T06:58:31.000Z,2.2
2023-03-11T06:59:37.000Z,2.9
2023-03-11T07:00:43.000Z,2.9
2023-03-11T07:02:54.000Z,3.2
2023-03-11T07:03:59.000Z,3.8
2023-03-11T07:05:04.000Z,2.2
2023-03-11T07:06:10.000Z,2.9
2023-03-11T07:08:22.000Z,3.2
2023-03-11T07:09:28.000Z,3.5
2023-03-11T07:10:34.000Z,3.2
2023-03-11T07:11:41.000Z,3.2
2023-03-11T07:13:53.000Z,2.5
2023-03-11T07:14:59.000Z,2.9
2023-03-11T07:17:11.000Z,2.5
2023-03-11T07:18:17.000Z,3.2
2023-03-11T07:19:22.000Z,3.5
2023-03-11T07:20:27.000Z,3.2
2023-03-11T07:21:33.000Z,3.2
2023-03-11T07:22:39.000Z,3.5
2023-03-11T07:24:52.000Z,3.2
2023-03-11T07:25:58.000Z,3.2
2023-03-11T07:27:04.000Z,2.9
2023-03-11T07:28:10.000Z,3.5
2023-03-11T07:29:16.000Z,2.9
2023-03-11T07:30:22.000Z,2.5
2023-03-11T07:31:28.000Z,2.9
2023-03-11T07:32:34.000Z,2.9
2023-03-11T07:33:40.000Z,2.9
2023-03-11T07:34:45.000Z,3.2
2023-03-11T07:35:51.000Z,2.5
2023-03-11T07:36:57.000Z,2.9
2023-03-11T07:39:10.000Z,2.5
2023-03-11T07:40:16.000Z,2.9
2023-03-11T07:42:28.000Z,2.9
2023-03-11T07:43:34.000Z,3.2
2023-03-11T07:44:40.000Z,2.5
2023-03-11T07:45:46.000Z,4.1
2023-03-11T07:46:52.000Z,2.5
2023-03-11T07:47:58.000Z,3.2
2023-03-11T07:49:03.000Z,2.9
2023-03-11T07:50:09.000Z,2.9
2023-03-11T07:51:16.000Z,2.2
2023-03-11T07:52:22.000Z,3.2
2023-03-11T07:53:28.000Z,2.5
2023-03-11T07:54:34.000Z,2.5
2023-03-11T07:55:40.000Z,2.2
2023-03-11T07:57:52.000Z,3.2
2023-03-11T07:58:58.000Z,2.9
2023-03-11T08:00:04.000Z,2.9
2023-03-11T08:01:10.000Z,1.9
2023-03-11T08:03:22.000Z,2.9
2023-03-11T08:04:27.000Z,2.9
2023-03-11T08:05:33.000Z,3.5
2023-03-11T08:06:40.000Z,3.2
2023-03-11T08:08:52.000Z,2.9
2023-03-11T08:09:58.000Z,2.9
2023-03-11T08:12:10.000Z,3.2
2023-03-11T08:13:16.000Z,2.9
2023-03-11T08:14:22.000Z,2.9
2023-03-11T08:15:28.000Z,3.2
2023-03-11T08:16:34.000Z,2.9
2023-03-11T08:18:47.000Z,2.9
2023-03-11T08:22:05.000Z,3.2
2023-03-11T08:23:10.000Z,2.9
2023-03-11T08:24:16.000Z,2.5
2023-03-11T08:25:22.000Z,2.5
2023-03-11T08:26:28.000Z,2.9
2023-03-11T08:27:34.000Z,2.5
2023-03-11T08:28:40.000Z,2.9
2023-03-11T08:29:46.000Z,2.5
2023-03-11T08:31:58.000Z,3.2
2023-03-11T08:33:04.000Z,2.5
2023-03-11T08:34:11.000Z,2.9
2023-03-11T08:35:17.000Z,2.9
2023-03-11T08:36:23.000Z,2.9
2023-03-11T08:37:28.000Z,2.5
2023-03-11T08:38:34.000Z,3.2
2023-03-11T08:39:40.000Z,3.2
2023-03-11T08:40:46.000Z,2.9
2023-03-11T08:41:52.000Z,3.5
2023-03-11T08:42:58.000Z,3.2
2023-03-11T08:45:10.000Z,3.2
2023-03-11T08:47:23.000Z,3.2
2023-03-11T08:48:29.000Z,2.5
2023-03-11T08:49:35.000Z,2.9
2023-03-11T08:52:53.000Z,2.9
2023-03-11T08:53:59.000Z,3.5
2023-03-11T08:55:04.000Z,2.5
2023-03-11T08:56:10.000Z,3.5
2023-03-11T08:58:22.000Z,3.2
2023-03-11T08:59:28.000Z,2.9
2023-03-11T09:00:34.000Z,3.2
2023-03-11T09:02:47.000Z,3.2
2023-03-11T09:03:53.000Z,3.5
2023-03-11T09:04:59.000Z,2.5
2023-03-11T09:06:05.000Z,2.9
2023-03-11T09:07:11.000Z,3.5
2023-03-11T09:08:17.000Z,2.9
2023-03-11T09:09:22.000Z,3.5
2023-03-11T09:10:28.000Z,2.2
2023-03-11T09:11:34.000Z,2.9
2023-03-11T09:12:40.000Z,3.2
2023-03-11T09:13:46.000Z,2.2
2023-03-11T09:14:53.000Z,3.5
2023-03-11T09:15:59.000Z,2.9
2023-03-11T09:17:05.000Z,2.9
2023-03-11T09:18:11.000Z,4.5
2023-03-11T09:19:17.000Z,2.5
2023-03-11T09:20:23.000Z,1.9
2023-03-11T09:22:34.000Z,3.5
2023-03-11T09:23:39.000Z,3.2
2023-03-11T09:24:45.000Z,2.9
2023-03-11T09:25:50.000Z,3.2
2023-03-11T09:26:55.000Z,3.2
2023-03-11T09:29:08.000Z,2.5
2023-03-11T09:30:14.000Z,3.5
2023-03-11T09:31:20.000Z,3.5
2023-03-11T09:32:26.000Z,2.9
2023-03-11T09:33:32.000Z,3.2
2023-03-11T09:34:38.000Z,3.5
2023-03-11T09:35:44.000Z,2.9
2023-03-11T09:36:50.000Z,3.2
2023-03-11T09:37:56.000Z,3.2
2023-03-11T09:39:02.000Z,3.2
2023-03-11T09:40:08.000Z,2.5
2023-03-11T09:42:20.000Z,2.9
2023-03-11T09:43:25.000Z,3.5
2023-03-11T09:44:31.000Z,3.5
2023-03-11T09:47:48.000Z,2.2
2023-03-11T09:48:54.000Z,3.2
2023-03-11T09:50:00.000Z,2.5
2023-03-11T09:51:06.000Z,2.2
2023-03-11T09:52:12.000Z,3.2
2023-03-11T09:53:18.000Z,2.5
2023-03-11T09:54:24.000Z,2.9
2023-03-11T09:55:31.000Z,3.2
2023-03-11T09:59:55.000Z,3.8
2023-03-11T10:01:00.000Z,2.9
2023-03-11T10:02:05.000Z,3.5
2023-03-11T10:04:17.000Z,3.2
2023-03-11T10:05:23.000Z,2.9
2023-03-11T10:06:29.000Z,2.5
2023-03-11T10:07:35.000Z,2.5
2023-03-11T10:08:42.000Z,3.2
2023-03-11T10:10:54.000Z,3.2
2023-03-11T10:12:00.000Z,2.9
2023-03-11T10:13:06.000Z,3.2
2023-03-11T10:14:12.000Z,3.2
2023-03-11T10:15:18.000Z,2.9
2023-03-11T10:16:23.000Z,3.2
2023-03-11T10:17:29.000Z,3.2
2023-03-11T10:18:35.000Z,4.1
2023-03-11T10:19:41.000Z,2.5
2023-03-11T10:20:47.000Z,3.2
2023-03-11T10:21:54.000Z,2.5
2023-03-11T10:23:00.000Z,3.2
2023-03-11T10:24:06.000Z,2.5
2023-03-11T10:25:12.000Z,3.2
2023-03-11T10:26:18.000Z,2.2
2023-03-11T10:27:23.000Z,3.2
2023-03-11T10:28:28.000Z,2.9
2023-03-11T10:29:34.000Z,3.2
2023-03-11T10:30:40.000Z,2.5
2023-03-11T10:31:46.000Z,2.2
2023-03-11T10:32:52.000Z,2.5
2023-03-11T10:33:58.000Z,2.5
2023-03-11T10:35:04.000Z,3.2
2023-03-11T10:36:11.000Z,2.5
2023-03-11T10:37:17.000Z,2.5
2023-03-11T10:38:23.000Z,3.8
2023-03-11T10:39:28.000Z,3.2
2023-03-11T10:40:33.000Z,2.9
2023-03-11T10:41:39.000Z,2.5
2023-03-11T10:43:51.000Z,2.9
2023-03-11T10:44:57.000Z,3.2
2023-03-11T10:46:03.000Z,2.9
2023-03-11T10:47:09.000Z,2.5
2023-03-11T10:48:15.000Z,2.9
2023-03-11T10:49:22.000Z,3.2
2023-03-11T10:50:28.000Z,3.2
2023-03-11T10:51:34.000Z,3.5
2023-03-11T10:53:46.000Z,2.5
2023-03-11T10:54:51.000Z,2.5
2023-03-11T10:55:56.000Z,1.9
2023-03-11T10:57:02.000Z,3.2
2023-03-11T10:58:08.000Z,3.2
2023-03-11T10:59:14.000Z,3.2
2023-03-11T11:00:20.000Z,3.2
2023-03-11T11:01:26.000Z,2.9
2023-03-11T11:02:32.000Z,2.9
2023-03-11T11:03:39.000Z,3.5
2023-03-11T11:04:45.000Z,2.9
2023-03-11T11:06:57.000Z,2.5
2023-03-11T11:08:03.000Z,2.5
2023-03-11T11:09:09.000Z,2.9
2023-03-11T11:10:14.000Z,2.9
2023-03-11T11:11:20.000Z,2.9
2023-03-11T11:12:26.000Z,2.9
2023-03-11T11:13:32.000Z,3.2
2023-03-11T11:14:38.000Z,3.5
2023-03-11T11:15:44.000Z,3.5
2023-03-11T11:16:51.000Z,2.2
2023-03-11T11:17:57.000Z,3.2
2023-03-11T11:19:02.000Z,2.9
2023-03-11T11:20:07.000Z,2.5
2023-03-11T11:21:13.000Z,2.9
2023-03-11T11:22:19.000Z,2.9
2023-03-11T11:23:25.000Z,3.5
2023-03-11T11:24:31.000Z,3.5
2023-03-11T11:25:37.000Z,2.2
2023-03-11T11:26:43.000Z,3.5
2023-03-11T11:27:49.000Z,3.2
2023-03-11T11:28:55.000Z,2.9
2023-03-11T11:30:01.000Z,2.5
2023-03-11T11:32:14.000Z,3.8
2023-03-11T11:33:20.000Z,3.2
2023-03-11T11:34:25.000Z,2.9
2023-03-11T11:35:31.000Z,2.9
2023-03-11T11:36:37.000Z,3.2
2023-03-11T11:37:43.000Z,3.2
2023-03-11T11:38:49.000Z,3.2
2023-03-11T11:39:55.000Z,3.2
2023-03-11T11:41:01.000Z,2.9
2023-03-11T11:43:13.000Z,2.5
2023-03-11T11:44:20.000Z,2.5
2023-03-11T11:45:26.000Z,3.8
2023-03-11T11:46:32.000Z,2.5
2023-03-11T11:48:44.000Z,3.2
2023-03-11T11:49:49.000Z,3.2
2023-03-11T11:50:54.000Z,3.2
2023-03-11T11:52:00.000Z,2.9
2023-03-11T11:53:06.000Z,2.9
2023-03-11T11:54:12.000Z,4.1
2023-03-11T11:55:18.000Z,3.2
2023-03-11T11:56:24.000Z,2.5
2023-03-11T11:57:30.000Z,3.8
2023-03-11T11:58:36.000Z,2.9
2023-03-11T11:59:43.000Z,3.2
2023-03-11T12:00:49.000Z,2.9
2023-03-11T12:01:54.000Z,1.9
2023-03-11T12:02:59.000Z,3.2
2023-03-11T12:04:05.000Z,2.5
2023-03-11T12:05:11.000Z,3.2
2023-03-11T12:06:17.000Z,3.8
2023-03-11T12:07:23.000Z,3.2
2023-03-11T12:08:29.000Z,2.9
2023-03-11T12:09:35.000Z,2.9
2023-03-11T12:10:41.000Z,3.2
2023-03-11T12:11:47.000Z,3.2
2023-03-11T12:12:54.000Z,2.9
2023-03-11T12:14:00.000Z,2.9
2023-03-11T12:15:06.000Z,3.2
2023-03-11T12:16:12.000Z,2.5
2023-03-11T12:17:17.000Z,3.5
2023-03-11T12:18:23.000Z,3.5
2023-03-11T12:19:29.000Z,3.2
2023-03-11T12:20:35.000Z,3.2
2023-03-11T12:21:41.000Z,3.2
2023-03-11T12:22:47.000Z,3.5
2023-03-11T12:23:53.000Z,4.1
2023-03-11T12:24:59.000Z,3.2
2023-03-11T12:26:05.000Z,2.5
2023-03-11T12:27:11.000Z,3.2
2023-03-11T12:28:18.000Z,3.5
2023-03-11T12:29:24.000Z,3.2
2023-03-11T12:30:30.000Z,3.2
2023-03-11T12:31:36.000Z,3.5
2023-03-11T12:32:41.000Z,3.8
2023-03-11T12:33:47.000Z,3.5
2023-03-11T12:34:53.000Z,3.2
2023-03-11T12:35:59.000Z,3.5
2023-03-11T12:37:05.000Z,2.9
2023-03-11T12:39:17.000Z,3.5
2023-03-11T12:40:24.000Z,3.5
2023-03-11T12:41:30.000Z,3.8
2023-03-11T12:43:42.000Z,3.5
2023-03-11T12:45:54.000Z,3.8
2023-03-11T12:46:59.000Z,4.1
2023-03-11T12:48:04.000Z,3.8
2023-03-11T12:49:10.000Z,3.5
2023-03-11T12:50:16.000Z,3.5
2023-03-11T12:51:22.000Z,4.1
2023-03-11T12:52:28.000Z,2.9
2023-03-11T12:53:34.000Z,4.1
2023-03-11T12:54:40.000Z,3.5
2023-03-11T12:55:47.000Z,3.5
2023-03-11T12:56:53.000Z,4.1
2023-03-11T12:57:59.000Z,4.1
2023-03-11T12:59:04.000Z,3.5
2023-03-11T13:00:10.000Z,3.5
2023-03-11T13:01:15.000Z,4.5
2023-03-11T13:02:21.000Z,3.2
2023-03-11T13:03:27.000Z,4.1
2023-03-11T13:04:33.000Z,3.8
2023-03-11T13:05:39.000Z,3.8
2023-03-11T13:06:45.000Z,3.5
2023-03-11T13:08:58.000Z,3.8
2023-03-11T13:10:04.000Z,3.5
2023-03-11T13:11:10.000Z,4.1
2023-03-11T13:12:16.000Z,3.8
2023-03-11T13:14:28.000Z,3.8
2023-03-11T13:15:33.000Z,3.2
2023-03-11T13:16:38.000Z,3.8
2023-03-11T13:17:44.000Z,3.8
2023-03-11T13:18:50.000Z,4.1
2023-03-11T13:19:56.000Z,3.5
2023-03-11T13:21:02.000Z,4.5
2023-03-11T13:22:08.000Z,3.8
2023-03-11T13:23:15.000Z,3.8
2023-03-11T13:24:21.000Z,3.5
2023-03-11T13:25:27.000Z,4.1
2023-03-11T13:26:33.000Z,3.5
2023-03-11T13:27:38.000Z,3.8
2023-03-11T13:28:44.000Z,3.8
2023-03-11T13:29:49.000Z,3.8
2023-03-11T13:30:55.000Z,3.8
2023-03-11T13:33:07.000Z,5.1
2023-03-11T13:34:13.000Z,4.1
2023-03-11T13:35:19.000Z,4.5
2023-03-11T13:36:26.000Z,4.1
2023-03-11T13:38:38.000Z,4.5
2023-03-11T13:40:50.000Z,4.1
2023-03-11T13:41:56.000Z,3.8
2023-03-11T13:43:01.000Z,4.1
2023-03-11T13:44:06.000Z,4.5
2023-03-11T13:45:12.000Z,3.5
2023-03-11T13:46:18.000Z,4.1
2023-03-11T13:47:24.000Z,3.5
2023-03-11T13:49:36.000Z,4.5
2023-03-11T13:50:42.000Z,4.5
2023-03-11T13:51:49.000Z,4.1
2023-03-11T13:52:55.000Z,4.1
2023-03-11T13:54:01.000Z,5.1
2023-03-11T13:55:07.000Z,4.5
2023-03-11T13:56:13.000Z,4.8
2023-03-11T13:57:19.000Z,5.1
2023-03-11T13:58:24.000Z,4.8
2023-03-11T13:59:30.000Z,4.5
2023-03-11T14:00:36.000Z,3.8
2023-03-11T14:01:42.000Z,4.1
2023-03-11T14:02:48.000Z,3.5
2023-03-11T14:03:54.000Z,3.5
2023-03-11T14:05:01.000Z,4.1
2023-03-11T14:06:07.000Z,4.5
2023-03-11T14:07:12.000Z,4.5
2023-03-11T14:08:17.000Z,4.1
2023-03-11T14:09:23.000Z,4.5
2023-03-11T14:10:29.000Z,4.5
2023-03-11T14:11:35.000Z,4.5
2023-03-11T14:12:41.000Z,4.1
2023-03-11T14:13:47.000Z,4.1
2023-03-11T14:14:53.000Z,4.1
2023-03-11T14:15:59.000Z,4.1
2023-03-11T14:17:05.000Z,4.8
2023-03-11T14:18:11.000Z,5.1
2023-03-11T14:19:17.000Z,4.5
2023-03-11T14:20:24.000Z,4.8
2023-03-11T14:21:30.000Z,4.8
2023-03-11T14:22:35.000Z,4.1
2023-03-11T14:23:41.000Z,4.1
2023-03-11T14:24:47.000Z,4.5
2023-03-11T14:25:53.000Z,4.1
2023-03-11T14:26:59.000Z,4.5
2023-03-11T14:28:05.000Z,4.8
2023-03-11T14:29:11.000Z,4.5
2023-03-11T14:30:17.000Z,4.5
2023-03-11T14:31:23.000Z,4.8
2023-03-11T14:33:35.000Z,5.4
2023-03-11T14:34:42.000Z,4.5
2023-03-11T14:35:48.000Z,5.1
2023-03-11T14:37:59.000Z,4.5
2023-03-11T14:39:05.000Z,4.1
2023-03-11T14:40:11.000Z,4.1
2023-03-11T14:41:17.000Z,4.8
2023-03-11T14:42:23.000Z,4.5
2023-03-11T14:43:29.000Z,5.1
2023-03-11T14:44:35.000Z,4.8
2023-03-11T14:45:41.000Z,5.1
2023-03-11T14:47:53.000Z,5.4
2023-03-11T14:48:59.000Z,4.8
2023-03-11T14:50:04.000Z,4.5
2023-03-11T14:51:10.000Z,5.4
2023-03-11T14:52:16.000Z,4.8
2023-03-11T14:53:22.000Z,4.8
2023-03-11T14:54:28.000Z,4.8
2023-03-11T14:55:34.000Z,5.4
2023-03-11T14:56:40.000Z,4.8
2023-03-11T14:57:46.000Z,5.4
2023-03-11T14:58:52.000Z,4.8
2023-03-11T14:59:58.000Z,6.1
2023-03-11T15:01:03.000Z,4.8
2023-03-11T15:02:09.000Z,5.1
2023-03-11T15:03:15.000Z,5.1
2023-03-11T15:04:21.000Z,4.5
2023-03-11T15:05:27.000Z,4.8
2023-03-11T15:06:33.000Z,5.1
2023-03-11T15:08:45.000Z,4.8
2023-03-11T15:10:57.000Z,4.8
2023-03-11T15:12:03.000Z,4.5
2023-03-11T15:14:15.000Z,4.8
2023-03-11T15:16:27.000Z,5.4
2023-03-11T15:18:39.000Z,4.1
2023-03-11T15:19:44.000Z,4.5
2023-03-11T15:20:49.000Z,4.8
2023-03-11T15:21:55.000Z,4.5
2023-03-11T15:23:01.000Z,4.8
2023-03-11T15:24:07.000Z,4.8
2023-03-11T15:25:13.000Z,4.8
2023-03-11T15:26:19.000Z,4.5
2023-03-11T15:27:25.000Z,5.1
2023-03-11T15:28:32.000Z,4.8
2023-03-11T15:29:38.000Z,5.1
2023-03-11T15:30:44.000Z,4.5
2023-03-11T15:31:49.000Z,5.4
2023-03-11T15:32:54.000Z,5.1
2023-03-11T15:34:00.000Z,4.8
2023-03-11T15:35:06.000Z,3.8
2023-03-11T15:37:18.000Z,5.8
2023-03-11T15:38:24.000Z,4.8
2023-03-11T15:39:30.000Z,4.8
2023-03-11T15:40:36.000Z,5.8
2023-03-11T15:41:42.000Z,4.8
2023-03-11T15:42:48.000Z,4.5
2023-03-11T15:43:55.000Z,4.8
2023-03-11T15:45:01.000Z,5.1
2023-03-11T15:46:07.000Z,5.1
2023-03-11T15:47:12.000Z,5.4
2023-03-11T15:48:18.000Z,4.8
2023-03-11T15:50:30.000Z,4.8
2023-03-11T15:51:35.000Z,5.1
2023-03-11T15:52:40.000Z,5.1
2023-03-11T15:53:46.000Z,4.8
2023-03-11T15:54:52.000Z,5.1
2023-03-11T15:55:58.000Z,4.8
2023-03-11T15:57:05.000Z,5.1
2023-03-11T15:58:11.000Z,4.8
2023-03-11T15:59:17.000Z,4.8
2023-03-11T16:01:29.000Z,4.8
2023-03-11T16:02:35.000Z,4.1
2023-03-11T16:03:41.000Z,5.4
2023-03-11T16:04:47.000Z,4.8
2023-03-11T16:05:53.000Z,5.4
2023-03-11T16:06:58.000Z,4.8
2023-03-11T16:08:04.000Z,6.1
2023-03-11T16:09:10.000Z,5.8
2023-03-11T16:10:16.000Z,4.8
2023-03-11T16:11:22.000Z,4.5
2023-03-11T16:12:29.000Z,5.8
2023-03-11T16:13:35.000Z,5.8
2023-03-11T16:14:41.000Z,5.1
2023-03-11T16:15:46.000Z,4.5
2023-03-11T16:16:51.000Z,5.1
2023-03-11T16:17:57.000Z,4.8
2023-03-11T16:19:03.000Z,4.8
2023-03-11T16:20:09.000Z,4.5
2023-03-11T16:21:15.000Z,5.4
2023-03-11T16:22:21.000Z,4.5
2023-03-11T16:23:27.000Z,5.1
2023-03-11T16:25:39.000Z,5.4
2023-03-11T16:26:46.000Z,5.1
2023-03-11T16:27:52.000Z,5.1
2023-03-11T16:28:58.000Z,4.5
2023-03-11T16:30:04.000Z,4.8
2023-03-11T16:31:09.000Z,4.8
2023-03-11T16:32:15.000Z,5.1
2023-03-11T16:33:21.000Z,5.1
2023-03-11T16:34:27.000Z,4.8
2023-03-11T16:35:33.000Z,4.5
2023-03-11T16:36:39.000Z,4.8
2023-03-11T16:37:45.000Z,5.4
2023-03-11T16:39:57.000Z,5.1
2023-03-11T16:41:04.000Z,5.1
2023-03-11T16:42:10.000Z,5.1
2023-03-11T16:43:16.000Z,5.4
2023-03-11T16:44:22.000Z,5.8
2023-03-11T16:45:27.000Z,4.5
2023-03-11T16:47:39.000Z,5.1
2023-03-11T16:48:44.000Z,6.1
2023-03-11T16:49:49.000Z,5.1
2023-03-11T16:50:55.000Z,5.1
2023-03-11T16:52:01.000Z,5.4
2023-03-11T16:53:07.000Z,4.8
2023-03-11T16:54:14.000Z,5.4
2023-03-11T16:55:20.000Z,5.4
2023-03-11T16:56:26.000Z,4.8
2023-03-11T16:57:32.000Z,5.1
2023-03-11T16:58:38.000Z,5.4
2023-03-11T16:59:44.000Z,5.8
2023-03-11T17:00:49.000Z,5.8
2023-03-11T17:01:54.000Z,4.5
2023-03-11T17:03:00.000Z,4.8
2023-03-11T17:04:06.000Z,5.8
2023-03-11T17:05:12.000Z,5.8
2023-03-11T17:06:18.000Z,5.8
2023-03-11T17:07:24.000Z,4.8
2023-03-11T17:08:30.000Z,5.4
2023-03-11T17:09:37.000Z,5.1
2023-03-11T17:10:43.000Z,5.4
2023-03-11T17:11:49.000Z,6.1
2023-03-11T17:12:54.000Z,5.4
2023-03-11T17:13:59.000Z,5.4
2023-03-11T17:15:05.000Z,5.1
2023-03-11T17:16:11.000Z,4.5
2023-03-11T17:17:17.000Z,5.8
2023-03-11T17:18:23.000Z,5.8
2023-03-11T17:19:29.000Z,5.1
2023-03-11T17:20:35.000Z,5.4
2023-03-11T17:21:42.000Z,4.5
2023-03-11T17:22:48.000Z,4.5
2023-03-11T17:23:53.000Z,4.8
2023-03-11T17:24:59.000Z,5.4
2023-03-11T17:27:11.000Z,5.1
2023-03-11T17:28:17.000Z,5.1
2023-03-11T17:29:23.000Z,5.4
2023-03-11T17:30:29.000Z,6.1
2023-03-11T17:31:35.000Z,5.4
2023-03-11T17:32:41.000Z,4.8
2023-03-11T17:33:47.000Z,5.1
2023-03-11T17:34:53.000Z,5.8
2023-03-11T17:35:59.000Z,5.1
2023-03-11T17:37:06.000Z,5.1